createdAt,value
2017-11-01T08:07:09.075Z,17.00
2017-11-01T08:09:35.050Z,16.67
2017-11-01T08:12:01.067Z,18.40
2017-11-01T08:14:27.111Z,18.13
2017-11-01T08:16:53.873Z,19.27
2017-11-01T08:19:19.790Z,17.90
2017-11-01T08:21:45.772Z,17.93
2017-11-01T08:24:11.733Z,17.90
2017-11-01T08:26:37.839Z,18.30
2017-11-01T08:29:03.885Z,15.80
2017-11-01T08:31:29.996Z,17.20
2017-11-01T08:33:56.009Z,17.33
2017-11-01T08:36:21.979Z,17.60
2017-11-01T08:38:47.991Z,16.10
2017-11-01T08:41:13.970Z,16.90
2017-11-01T08:43:40.104Z,17.30
2017-11-01T08:46:06.175Z,16.47
2017-11-01T08:48:33.258Z,16.47
2017-11-01T08:50:59.307Z,16.10
2017-11-01T08:53:25.348Z,16.20
2017-11-01T08:55:51.317Z,15.53
2017-11-01T08:58:17.300Z,14.50
2017-11-01T09:00:44.022Z,15.87
2017-11-01T09:03:10.129Z,14.80
2017-11-01T09:05:36.066Z,15.23
2017-11-01T09:08:03.303Z,15.30
2017-11-01T09:10:29.347Z,14.70
2017-11-01T09:12:55.351Z,15.87
2017-11-01T09:15:21.316Z,14.97
2017-11-01T09:17:47.403Z,15.90
2017-11-01T09:20:13.431Z,14.73
2017-11-01T09:22:39.377Z,17.37
2017-11-01T09:25:05.402Z,20.60
2017-11-01T09:27:31.504Z,13.80
2017-11-01T09:29:57.449Z,14.67
2017-11-01T09:32:23.374Z,13.97
2017-11-01T09:34:49.437Z,13.50
2017-11-01T09:37:15.373Z,14.23
2017-11-01T09:39:41.372Z,13.07
2017-11-01T09:42:07.364Z,13.17
2017-11-01T09:44:47.299Z,11.50
2017-11-01T09:47:18.794Z,13.40
2017-11-01T09:49:44.893Z,12.57
2017-11-01T09:52:10.867Z,12.43
2017-11-01T09:54:37.592Z,11.73
2017-11-01T09:57:03.528Z,12.20
2017-11-01T09:59:29.492Z,11.00
2017-11-01T10:01:55.452Z,12.73
2017-11-01T10:04:21.397Z,12.30
2017-11-01T10:06:47.408Z,12.23
2017-11-01T10:09:13.336Z,11.40
2017-11-01T10:11:39.414Z,12.03
2017-11-01T10:14:05.435Z,12.30
2017-11-01T10:16:31.354Z,11.33
2017-11-01T10:18:57.287Z,10.70
2017-11-01T10:21:23.378Z,12.20
2017-11-01T10:23:49.300Z,14.40
2017-11-01T10:26:15.260Z,11.70
2017-11-01T10:28:41.301Z,11.37
2017-11-01T10:31:07.314Z,11.33
2017-11-01T10:33:33.251Z,11.50
2017-11-01T10:35:59.216Z,11.63
2017-11-01T10:38:25.195Z,10.37
2017-11-01T10:40:51.195Z,10.20
2017-11-01T10:43:17.179Z,11.23
2017-11-01T10:45:43.199Z,10.60
2017-11-01T10:48:09.139Z,11.27
2017-11-01T10:50:35.077Z,9.63
2017-11-01T10:53:01.056Z,10.10
2017-11-01T10:55:27.046Z,8.83
2017-11-01T10:57:53.046Z,9.83
2017-11-01T11:00:18.993Z,9.83
2017-11-01T11:02:44.949Z,20.97
2017-11-01T11:05:10.889Z,10.47
2017-11-01T11:07:37.360Z,10.63
2017-11-01T11:10:03.473Z,10.70
2017-11-01T11:12:29.422Z,17.40
2017-11-01T11:14:55.443Z,10.10
2017-11-01T11:17:22.122Z,9.93
2017-11-01T11:19:48.081Z,11.97
2017-11-01T11:22:14.080Z,10.40
2017-11-01T11:24:40.077Z,10.10
2017-11-01T11:27:07.090Z,8.97
2017-11-01T11:29:33.064Z,8.80
2017-11-01T11:31:59.021Z,9.40
2017-11-01T11:34:25.082Z,10.93
2017-11-01T11:36:51.031Z,10.47
2017-11-01T11:39:16.989Z,10.00
2017-11-01T11:41:42.959Z,9.93
2017-11-01T11:44:08.915Z,9.63
2017-11-01T11:46:35.053Z,9.93
2017-11-01T11:49:01.114Z,9.97
2017-11-01T11:51:27.169Z,10.10
2017-11-01T11:53:53.103Z,9.93
2017-11-01T11:56:19.068Z,10.07
2017-11-01T11:58:45.088Z,9.43
2017-11-01T12:01:11.276Z,10.10
2017-11-01T12:03:37.211Z,10.80
2017-11-01T12:06:03.142Z,9.93
2017-11-01T12:08:29.819Z,8.00
2017-11-01T12:10:55.763Z,8.87
2017-11-01T12:13:21.755Z,15.43
2017-11-01T12:15:48.576Z,10.20
2017-11-01T12:18:15.244Z,9.17
2017-11-01T12:20:41.235Z,10.53
2017-11-01T12:23:07.928Z,9.70
2017-11-01T12:25:33.965Z,8.60
2017-11-01T12:27:59.976Z,7.93
2017-11-01T12:30:25.919Z,8.50
2017-11-01T12:32:52.023Z,8.97
2017-11-01T12:35:17.979Z,8.50
2017-11-01T12:37:43.941Z,7.97
2017-11-01T12:40:10.004Z,8.87
2017-11-01T12:42:36.040Z,7.90
2017-11-01T12:45:03.293Z,8.27
2017-11-01T12:47:29.295Z,8.63
2017-11-01T12:49:55.243Z,10.80
2017-11-01T12:52:21.177Z,10.80
2017-11-01T12:54:47.097Z,9.03
2017-11-01T12:57:13.799Z,7.77
2017-11-01T12:59:39.743Z,8.43
2017-11-01T13:02:05.719Z,8.07
2017-11-01T13:04:31.667Z,7.53
2017-11-01T13:06:57.693Z,9.17
2017-11-01T13:09:23.659Z,7.67
2017-11-01T13:11:49.647Z,21.70
2017-11-01T13:14:15.604Z,8.63
2017-11-01T13:16:41.562Z,7.20
2017-11-01T13:19:07.542Z,7.13
2017-11-01T13:21:33.523Z,6.90
2017-11-01T13:23:59.477Z,7.30
2017-11-01T13:26:25.751Z,7.30
2017-11-01T13:28:51.719Z,6.60
2017-11-01T13:31:17.697Z,6.80
2017-11-01T13:33:43.717Z,7.40
2017-11-01T13:36:09.662Z,7.63
2017-11-01T13:38:35.819Z,7.37
2017-11-01T13:41:01.833Z,7.37
2017-11-01T13:43:28.611Z,9.17
2017-11-01T13:45:54.683Z,7.33
2017-11-01T13:48:21.412Z,7.73
2017-11-01T13:50:47.364Z,6.70
2017-11-01T13:53:13.351Z,7.23
2017-11-01T13:55:39.378Z,7.10
2017-11-01T13:58:06.783Z,7.30
2017-11-01T14:00:32.923Z,6.87
2017-11-01T14:02:58.933Z,7.43
2017-11-01T14:05:24.928Z,6.77
2017-11-01T14:07:50.872Z,7.03
2017-11-01T14:10:16.806Z,6.70
2017-11-01T14:12:42.781Z,7.83
2017-11-01T14:15:08.723Z,7.53
2017-11-01T14:17:34.704Z,6.90
2017-11-01T14:20:00.700Z,8.57
2017-11-01T14:22:26.679Z,7.87
2017-11-01T14:24:52.591Z,7.50
2017-11-01T14:27:19.556Z,7.80
2017-11-01T14:29:45.494Z,7.90
2017-11-01T14:32:11.439Z,6.97
2017-11-01T14:34:37.410Z,6.93
2017-11-01T14:37:04.531Z,6.60
2017-11-01T14:39:31.314Z,6.67
2017-11-01T14:41:57.283Z,7.20
2017-11-01T14:44:23.308Z,6.83
2017-11-01T14:46:49.257Z,8.50
2017-11-01T14:49:15.308Z,7.00
2017-11-01T14:51:42.012Z,6.57
2017-11-01T14:54:08.714Z,6.70
2017-11-01T14:56:34.811Z,8.17
2017-11-01T14:59:00.757Z,6.50
2017-11-01T15:01:26.768Z,7.70
2017-11-01T15:03:52.691Z,6.43
2017-11-01T15:06:18.619Z,7.80
2017-11-01T15:08:44.559Z,6.77
2017-11-01T15:11:10.534Z,7.70
2017-11-01T15:13:36.530Z,7.30
2017-11-01T15:16:02.472Z,7.50
2017-11-01T15:18:28.422Z,8.60
2017-11-01T15:20:54.366Z,8.10
2017-11-01T15:23:20.336Z,7.50
2017-11-01T15:25:46.442Z,7.53
2017-11-01T15:28:12.444Z,7.83
2017-11-01T15:30:39.147Z,8.10
2017-11-01T15:33:05.314Z,7.10
2017-11-01T15:35:31.336Z,7.07
2017-11-01T15:37:57.294Z,7.60
2017-11-01T15:40:23.295Z,7.40
2017-11-01T15:42:49.238Z,7.77
2017-11-01T15:45:15.287Z,7.77
2017-11-01T15:47:42.008Z,8.00
2017-11-01T15:50:07.950Z,6.73
2017-11-01T15:52:33.871Z,7.27
2017-11-01T15:54:59.980Z,7.70
2017-11-01T15:57:25.929Z,7.47
2017-11-01T15:59:52.029Z,8.43
2017-11-01T16:02:18.005Z,7.37
2017-11-01T16:04:44.028Z,7.57
2017-11-01T16:07:10.115Z,8.83
2017-11-01T16:09:36.095Z,7.83
2017-11-01T16:12:02.065Z,8.70
2017-11-01T16:14:28.098Z,7.80
2017-11-01T16:16:54.094Z,7.77
2017-11-01T16:19:20.131Z,8.27
2017-11-01T16:21:46.137Z,8.67
2017-11-01T16:24:12.063Z,7.80
2017-11-01T16:26:39.267Z,8.30
2017-11-01T16:29:07.456Z,8.97
2017-11-01T16:31:33.471Z,9.37
2017-11-01T16:33:59.437Z,8.70
2017-11-01T16:36:25.401Z,9.00
2017-11-01T16:38:51.295Z,9.27
2017-11-01T16:41:17.300Z,9.17
2017-11-01T16:43:44.314Z,8.20
2017-11-01T16:46:10.340Z,9.17
2017-11-01T16:48:36.307Z,9.20
2017-11-01T16:51:03.027Z,8.33
2017-11-01T16:53:28.997Z,8.63
2017-11-01T16:55:54.988Z,9.90
2017-11-01T16:58:21.014Z,9.87
2017-11-01T17:00:47.752Z,9.67
2017-11-01T17:03:13.717Z,9.27
2017-11-01T17:05:39.918Z,10.20
2017-11-01T17:08:06.015Z,10.00
2017-11-01T17:10:31.945Z,10.90
2017-11-01T17:12:57.960Z,13.00
2017-11-01T17:15:23.887Z,12.77
2017-11-01T17:17:49.903Z,10.73
2017-11-01T17:20:15.888Z,12.33
2017-11-01T17:22:41.817Z,10.63
2017-11-01T17:25:07.771Z,10.97
2017-11-01T17:27:35.502Z,11.00
2017-11-01T17:30:01.742Z,11.87
2017-11-01T17:32:27.697Z,10.67
2017-11-01T17:34:54.397Z,10.87
2017-11-01T17:37:20.567Z,12.47
2017-11-01T17:39:46.580Z,11.07
2017-11-01T17:42:13.260Z,11.53
2017-11-01T17:44:39.296Z,12.27
2017-11-01T17:47:05.354Z,12.20
2017-11-01T17:49:31.329Z,12.80
2017-11-01T17:51:57.319Z,11.20
2017-11-01T17:54:23.254Z,11.00
2017-11-01T17:56:49.245Z,13.50
2017-11-01T17:59:15.191Z,11.07
2017-11-01T18:01:41.900Z,12.00
2017-11-01T18:04:07.825Z,11.53
2017-11-01T18:06:33.872Z,11.83
2017-11-01T18:08:59.799Z,9.93
2017-11-01T18:11:25.783Z,13.27
2017-11-01T18:13:51.698Z,10.90
2017-11-01T18:16:17.610Z,11.47
2017-11-01T18:18:43.536Z,11.60
2017-11-01T18:21:09.557Z,12.03
2017-11-01T18:23:35.720Z,11.93
2017-11-01T18:26:01.680Z,11.87
2017-11-01T18:28:27.664Z,12.70
2017-11-01T18:30:53.616Z,12.73
2017-11-01T18:33:19.579Z,13.03
2017-11-01T18:35:45.580Z,12.70
2017-11-01T18:38:11.606Z,13.77
2017-11-01T18:40:37.555Z,12.20
2017-11-01T18:43:03.466Z,12.73
2017-11-01T18:45:30.405Z,12.20
2017-11-01T18:47:57.187Z,12.50
2017-11-01T18:50:23.138Z,14.17
2017-11-01T18:52:49.122Z,13.13
2017-11-01T18:55:15.090Z,12.83
2017-11-01T18:57:41.077Z,14.03
2017-11-01T19:00:07.250Z,15.83
2017-11-01T19:02:33.198Z,16.20
2017-11-01T19:04:59.294Z,16.70
2017-11-01T19:07:25.326Z,18.90
2017-11-01T19:09:51.997Z,18.30
2017-11-01T19:12:17.991Z,19.03
2017-11-01T19:14:44.668Z,17.30
2017-11-01T19:17:10.631Z,17.80
2017-11-01T19:19:36.570Z,18.00
2017-11-01T19:22:02.490Z,18.97
2017-11-01T19:24:29.181Z,17.17
2017-11-01T19:26:55.127Z,18.70
2017-11-01T19:29:21.074Z,17.37
2017-11-01T19:31:47.733Z,17.77
2017-11-01T19:34:13.742Z,16.40
2017-11-01T19:36:39.684Z,16.97
2017-11-01T19:39:05.758Z,15.93
2017-11-01T19:41:31.704Z,16.00
2017-11-01T19:43:57.607Z,17.20
2017-11-01T19:46:24.516Z,19.97
2017-11-01T19:48:50.501Z,16.70
2017-11-01T19:51:17.235Z,17.77
2017-11-01T19:53:43.162Z,15.70
2017-11-01T19:56:09.119Z,15.93
2017-11-01T19:58:35.101Z,15.93
2017-11-01T20:01:01.081Z,15.57
2017-11-01T20:03:27.103Z,17.07
2017-11-01T20:05:53.098Z,15.97
2017-11-01T20:08:19.064Z,16.00
2017-11-01T20:10:44.979Z,17.87
2017-11-01T20:13:11.052Z,17.13
2017-11-01T20:15:36.971Z,15.93
2017-11-01T20:18:03.875Z,16.90
2017-11-01T20:20:30.633Z,16.10
2017-11-01T20:22:56.571Z,15.93
2017-11-01T20:25:22.489Z,16.53
2017-11-01T20:27:48.454Z,16.60
2017-11-01T20:30:14.466Z,17.67
2017-11-01T20:32:40.507Z,17.63
2017-11-01T20:35:06.434Z,19.00
2017-11-01T20:37:32.402Z,17.07
2017-11-01T20:39:58.370Z,18.20
2017-11-01T20:42:24.347Z,16.63
2017-11-01T20:44:51.037Z,18.87
2017-11-01T20:47:16.992Z,18.27
2017-11-01T20:49:42.933Z,20.57
2017-11-01T20:52:08.905Z,19.80
2017-11-01T20:54:34.956Z,21.40
2017-11-01T20:57:00.965Z,22.87
2017-11-01T20:59:26.978Z,22.00
2017-11-01T21:01:52.898Z,24.70
2017-11-01T21:04:19.637Z,21.73
2017-11-01T21:06:45.570Z,25.47
2017-11-01T21:09:12.263Z,22.17
2017-11-01T21:11:38.223Z,20.90
2017-11-01T21:14:04.162Z,21.60
2017-11-01T21:16:30.090Z,18.67
2017-11-01T21:18:56.164Z,18.53
2017-11-01T21:21:22.127Z,18.80
2017-11-01T21:23:48.111Z,19.03
2017-11-01T21:26:14.148Z,19.97
2017-11-01T21:28:40.098Z,20.37
2017-11-01T21:31:06.052Z,21.90
2017-11-01T21:33:32.013Z,21.20
2017-11-01T21:35:57.965Z,21.87
2017-11-01T21:38:23.932Z,21.40
2017-11-01T21:40:49.964Z,18.93
2017-11-01T21:43:15.923Z,19.13
2017-11-01T21:45:41.909Z,21.33
2017-11-01T21:48:07.869Z,19.57
2017-11-01T21:50:33.885Z,17.53
2017-11-01T21:52:59.815Z,18.40
2017-11-01T21:55:25.755Z,17.23
2017-11-01T21:57:51.727Z,15.13
2017-11-01T22:00:18.451Z,17.87
2017-11-01T22:02:44.474Z,17.03
2017-11-01T22:05:10.437Z,17.10
2017-11-01T22:07:37.185Z,17.30
2017-11-01T22:10:03.176Z,19.77
2017-11-01T22:12:29.173Z,19.57
2017-11-01T22:14:55.113Z,21.30
2017-11-01T22:17:21.790Z,20.07
2017-11-01T22:19:47.758Z,20.30
2017-11-01T22:22:13.743Z,19.40
2017-11-01T22:24:39.711Z,19.03
2017-11-01T22:27:05.729Z,19.07
2017-11-01T22:29:31.880Z,19.47
2017-11-01T22:31:57.830Z,21.27
2017-11-01T22:34:23.741Z,21.63
2017-11-01T22:36:49.777Z,24.43
2017-11-01T22:39:15.756Z,24.20
2017-11-01T22:41:42.408Z,25.90
2017-11-01T22:44:08.483Z,21.57
2017-11-01T22:46:34.584Z,21.77
2017-11-01T22:49:00.735Z,23.03
2017-11-01T22:51:26.682Z,21.53
2017-11-01T22:53:52.831Z,21.90
2017-11-01T22:56:19.851Z,20.80
2017-11-01T22:58:47.523Z,19.53
2017-11-01T23:01:13.544Z,21.30
2017-11-01T23:03:39.509Z,22.10
2017-11-01T23:06:05.439Z,19.70
2017-11-01T23:08:31.397Z,19.37
2017-11-01T23:10:57.355Z,21.47
2017-11-01T23:13:23.325Z,21.63
2017-11-01T23:15:49.273Z,21.63
2017-11-01T23:18:15.255Z,22.13
2017-11-01T23:20:41.198Z,18.90
2017-11-01T23:23:07.135Z,18.27
2017-11-01T23:25:33.869Z,19.63
2017-11-01T23:27:59.807Z,18.87
2017-11-01T23:30:25.712Z,18.10
2017-11-01T23:32:51.647Z,16.97
2017-11-01T23:35:17.677Z,16.47
2017-11-01T23:37:43.644Z,17.23
2017-11-01T23:40:09.585Z,17.73
2017-11-01T23:42:35.537Z,19.17
2017-11-01T23:45:01.534Z,19.97
2017-11-01T23:47:27.488Z,15.97
2017-11-01T23:49:53.455Z,16.60
2017-11-01T23:52:19.400Z,14.90
2017-11-01T23:54:45.352Z,15.07
2017-11-01T23:57:11.320Z,15.10
2017-11-01T23:59:37.266Z,15.87
